createdAt,value
2017-08-20T04:56:06.208Z,4
2017-08-20T04:57:14.287Z,4
2017-08-20T04:58:22.374Z,0
2017-08-20T04:59:30.605Z,0
2017-08-20T05:00:38.561Z,0
2017-08-20T05:01:46.647Z,4
2017-08-20T05:02:54.735Z,4
2017-08-20T05:04:02.818Z,4
2017-08-20T05:05:10.907Z,0
2017-08-20T05:06:18.998Z,0
2017-08-20T05:07:27.085Z,4
2017-08-20T05:08:35.172Z,4
2017-08-20T05:09:43.555Z,4
2017-08-20T05:10:51.346Z,0
2017-08-20T05:11:59.432Z,4
2017-08-20T05:13:07.524Z,4
2017-08-20T05:14:15.728Z,4
2017-08-20T05:15:23.791Z,4
2017-08-20T05:16:32.242Z,4
2017-08-20T05:17:40.492Z,4
2017-08-20T05:18:47.964Z,4
2017-08-20T05:19:56.048Z,4
2017-08-20T05:21:04.133Z,4
2017-08-20T05:22:12.262Z,4
2017-08-20T05:23:20.359Z,4
2017-08-20T05:24:28.409Z,4
2017-08-20T05:25:36.497Z,4
2017-08-20T05:26:44.591Z,4
2017-08-20T05:27:52.686Z,4
2017-08-20T05:29:00.774Z,4
2017-08-20T05:30:08.859Z,4
2017-08-20T05:31:16.945Z,4
2017-08-20T05:32:25.031Z,4
2017-08-20T05:33:33.118Z,4
2017-08-20T05:34:41.214Z,4
2017-08-20T05:35:49.892Z,4
2017-08-20T05:36:57.390Z,4
2017-08-20T05:38:05.660Z,8
2017-08-20T05:39:13.561Z,4
2017-08-20T05:40:21.647Z,4
2017-08-20T05:41:29.734Z,4
2017-08-20T05:42:37.819Z,4
2017-08-20T05:43:45.909Z,8
2017-08-20T05:44:53.996Z,4
2017-08-20T05:46:02.082Z,4
2017-08-20T05:47:10.167Z,4
2017-08-20T05:48:18.255Z,4
2017-08-20T05:49:26.339Z,8
2017-08-20T05:50:34.423Z,8
2017-08-20T05:51:42.522Z,8
2017-08-20T05:52:50.610Z,8
2017-08-20T05:53:58.695Z,4
2017-08-20T05:55:07.209Z,4
2017-08-20T05:56:14.874Z,4
2017-08-20T05:57:22.951Z,4
2017-08-20T05:58:31.043Z,8
2017-08-20T05:59:39.125Z,4
2017-08-20T06:00:47.258Z,8
2017-08-20T06:01:55.298Z,8
2017-08-20T06:03:03.477Z,8
2017-08-20T06:04:11.488Z,8
2017-08-20T06:05:19.555Z,8
2017-08-20T06:06:27.649Z,8
2017-08-20T06:07:36.336Z,8
2017-08-20T06:08:43.819Z,8
2017-08-20T06:09:51.908Z,12
2017-08-20T06:10:59.994Z,12
2017-08-20T06:12:08.083Z,12
2017-08-20T06:13:16.171Z,12
2017-08-20T06:14:24.253Z,12
2017-08-20T06:15:32.558Z,8
2017-08-20T06:16:40.438Z,8
2017-08-20T06:17:48.518Z,8
2017-08-20T06:18:56.606Z,8
2017-08-20T06:20:04.929Z,8
2017-08-20T06:21:12.780Z,8
2017-08-20T06:22:20.960Z,8
2017-08-20T06:23:28.952Z,8
2017-08-20T06:24:37.367Z,8
2017-08-20T06:25:45.125Z,8
2017-08-20T06:26:53.915Z,12
2017-08-20T06:28:01.503Z,8
2017-08-20T06:29:09.556Z,12
2017-08-20T06:30:17.471Z,12
2017-08-20T06:31:25.651Z,12
2017-08-20T06:32:33.642Z,12
2017-08-20T06:33:41.729Z,8
2017-08-20T06:34:49.867Z,12
2017-08-20T06:35:58.191Z,8
2017-08-20T06:37:06.110Z,12
2017-08-20T06:38:14.428Z,8
2017-08-20T06:39:22.802Z,12
2017-08-20T06:40:30.394Z,8
2017-08-20T06:41:38.521Z,12
2017-08-20T06:42:47.037Z,12
2017-08-20T06:43:54.577Z,8
2017-08-20T06:45:03.054Z,12
2017-08-20T06:46:11.062Z,8
2017-08-20T06:47:19.289Z,8
2017-08-20T06:48:26.858Z,8
2017-08-20T06:49:34.937Z,8
2017-08-20T06:50:43.153Z,8
2017-08-20T06:51:51.212Z,8
2017-08-20T06:52:59.555Z,8
2017-08-20T06:54:07.280Z,8
2017-08-20T06:55:15.369Z,8
2017-08-20T06:56:23.590Z,8
2017-08-20T06:57:32.141Z,8
2017-08-20T06:58:39.648Z,8
2017-08-20T06:59:47.714Z,12
2017-08-20T07:00:56.494Z,12
2017-08-20T07:02:04.411Z,12
2017-08-20T07:03:12.974Z,12
2017-08-20T07:04:20.712Z,12
2017-08-20T07:05:28.149Z,12
2017-08-20T07:06:36.231Z,12
2017-08-20T07:07:44.397Z,12
2017-08-20T07:08:52.412Z,8
2017-08-20T07:10:00.653Z,12
2017-08-20T07:11:08.580Z,12
2017-08-20T07:12:16.772Z,12
2017-08-20T07:13:24.797Z,12
2017-08-20T07:14:32.835Z,16
2017-08-20T07:15:40.921Z,16
2017-08-20T07:16:49.006Z,20
2017-08-20T07:17:57.590Z,20
2017-08-20T07:19:06.141Z,24
2017-08-20T07:20:13.269Z,24
2017-08-20T07:21:21.805Z,24
2017-08-20T07:22:29.511Z,24
2017-08-20T07:23:37.523Z,24
2017-08-20T07:24:45.610Z,24
2017-08-20T07:25:53.707Z,28
2017-08-20T07:27:01.794Z,28
2017-08-20T07:28:09.884Z,24
2017-08-20T07:29:17.964Z,20
2017-08-20T07:30:26.050Z,20
2017-08-20T07:31:34.295Z,16
2017-08-20T07:32:42.232Z,16
2017-08-20T07:33:50.381Z,16
2017-08-20T07:34:58.397Z,16
2017-08-20T07:36:06.683Z,16
2017-08-20T07:37:14.571Z,16
2017-08-20T07:38:22.659Z,20
2017-08-20T07:39:30.785Z,16
2017-08-20T07:40:39.045Z,20
2017-08-20T07:41:47.327Z,20
2017-08-20T07:42:55.010Z,20
2017-08-20T07:44:03.379Z,20
2017-08-20T07:45:11.507Z,16
2017-08-20T07:46:19.451Z,20
2017-08-20T07:47:27.360Z,20
2017-08-20T07:48:35.441Z,24
2017-08-20T07:49:43.526Z,24
2017-08-20T07:50:51.620Z,28
2017-08-20T07:51:59.709Z,28
2017-08-20T07:53:07.951Z,28
2017-08-20T07:54:15.886Z,28
2017-08-20T07:55:23.966Z,24
2017-08-20T07:56:32.053Z,24
2017-08-20T07:57:40.200Z,24
2017-08-20T07:58:48.228Z,28
2017-08-20T07:59:56.347Z,24
2017-08-20T08:01:04.445Z,24
2017-08-20T08:02:12.526Z,28
2017-08-20T08:03:20.606Z,24
2017-08-20T08:04:28.694Z,28
2017-08-20T08:05:36.783Z,28
2017-08-20T08:06:44.880Z,28
2017-08-20T08:07:52.966Z,24
2017-08-20T08:09:01.050Z,24
2017-08-20T08:10:09.135Z,28
2017-08-20T08:11:17.232Z,28
2017-08-20T08:12:25.311Z,24
2017-08-20T08:13:33.406Z,24
2017-08-20T08:14:41.581Z,28
2017-08-20T08:15:49.568Z,28
2017-08-20T08:16:57.652Z,24
2017-08-20T08:18:05.746Z,28
2017-08-20T08:19:13.832Z,24
2017-08-20T08:20:21.920Z,24
2017-08-20T08:21:30.004Z,28
2017-08-20T08:22:38.100Z,12
2017-08-20T08:23:46.185Z,12
2017-08-20T08:24:54.278Z,12
2017-08-20T08:26:02.378Z,12
2017-08-20T08:27:10.466Z,12
2017-08-20T08:28:18.553Z,12
2017-08-20T08:29:26.639Z,12
2017-08-20T08:30:34.725Z,16
2017-08-20T08:31:42.809Z,12
2017-08-20T08:32:50.900Z,12
2017-08-20T08:33:58.990Z,12
2017-08-20T08:35:07.074Z,12
2017-08-20T08:36:15.159Z,8
2017-08-20T08:37:23.250Z,8
2017-08-20T08:38:31.334Z,12
2017-08-20T08:39:39.439Z,8
2017-08-20T08:40:47.508Z,8
2017-08-20T08:41:55.595Z,12
2017-08-20T08:43:03.680Z,8
2017-08-20T08:44:11.768Z,12
2017-08-20T08:45:19.852Z,8
2017-08-20T08:46:27.941Z,12
2017-08-20T08:47:36.029Z,12
2017-08-20T08:48:44.119Z,12
2017-08-20T08:49:52.202Z,12
2017-08-20T08:51:00.290Z,16
2017-08-20T08:52:08.398Z,24
2017-08-20T08:53:16.493Z,24
2017-08-20T08:54:24.581Z,24
2017-08-20T08:55:32.668Z,24
2017-08-20T08:56:40.755Z,24
2017-08-20T08:57:48.841Z,24
2017-08-20T08:58:56.929Z,24
2017-08-20T09:00:05.014Z,24
2017-08-20T09:01:13.143Z,24
2017-08-20T09:02:21.193Z,24
2017-08-20T09:03:29.290Z,24
2017-08-20T09:04:37.361Z,24
2017-08-20T09:05:45.446Z,24
2017-08-20T09:06:53.535Z,24
2017-08-20T09:08:01.627Z,12
2017-08-20T09:09:09.709Z,16
2017-08-20T09:10:17.792Z,12
2017-08-20T09:11:25.881Z,12
2017-08-20T09:12:33.973Z,16
2017-08-20T09:13:42.050Z,12
2017-08-20T09:14:50.142Z,12
2017-08-20T09:15:58.224Z,16
2017-08-20T09:17:06.353Z,12
2017-08-20T09:18:14.434Z,12
2017-08-20T09:19:22.519Z,16
2017-08-20T09:20:30.607Z,12
2017-08-20T09:21:38.706Z,12
2017-08-20T09:22:46.793Z,12
2017-08-20T09:23:54.877Z,12
2017-08-20T09:25:02.969Z,12
2017-08-20T09:26:11.055Z,8
2017-08-20T09:27:19.169Z,8
2017-08-20T09:28:27.240Z,12
2017-08-20T09:29:35.326Z,8
2017-08-20T09:30:43.409Z,8
2017-08-20T09:31:51.493Z,8
2017-08-20T09:32:59.599Z,8
2017-08-20T09:34:07.667Z,8
2017-08-20T09:35:15.754Z,4
2017-08-20T09:36:23.840Z,8
2017-08-20T09:37:31.928Z,8
2017-08-20T09:38:40.010Z,8
2017-08-20T09:39:48.098Z,8
2017-08-20T09:40:56.214Z,8
2017-08-20T09:42:04.269Z,8
2017-08-20T09:43:12.359Z,8
2017-08-20T09:44:20.445Z,8
2017-08-20T09:45:28.535Z,8
2017-08-20T09:46:36.620Z,8
2017-08-20T09:47:44.706Z,8
2017-08-20T09:48:52.793Z,8
2017-08-20T09:50:01.070Z,8
2017-08-20T09:51:08.965Z,8
2017-08-20T09:52:17.052Z,8
2017-08-20T09:53:25.139Z,8
2017-08-20T09:54:33.224Z,12
2017-08-20T09:55:41.316Z,12
2017-08-20T09:56:49.401Z,8
2017-08-20T09:57:57.486Z,12
2017-08-20T09:59:05.569Z,8
2017-08-20T10:00:13.662Z,8
2017-08-20T10:01:21.745Z,12
2017-08-20T10:02:29.828Z,8
2017-08-20T10:03:37.916Z,12
2017-08-20T10:04:46.004Z,8
2017-08-20T10:05:54.089Z,8
2017-08-20T10:07:02.183Z,8
2017-08-20T10:08:10.267Z,12
2017-08-20T10:09:18.353Z,12
2017-08-20T10:10:26.441Z,12
2017-08-20T10:11:34.533Z,12
2017-08-20T10:12:42.613Z,12
2017-08-20T10:13:50.714Z,12
2017-08-20T10:14:58.793Z,12
2017-08-20T10:16:06.883Z,12
2017-08-20T10:17:14.969Z,12
2017-08-20T10:18:23.056Z,16
2017-08-20T10:19:31.146Z,28
2017-08-20T10:20:39.226Z,32
2017-08-20T10:21:47.313Z,32
2017-08-20T10:22:55.400Z,32
2017-08-20T10:24:03.490Z,32
2017-08-20T10:25:11.575Z,28
2017-08-20T10:26:19.662Z,32
2017-08-20T10:27:27.749Z,28
2017-08-20T10:28:35.915Z,32
2017-08-20T10:29:43.919Z,28
2017-08-20T10:30:52.006Z,32
2017-08-20T10:32:00.092Z,28
2017-08-20T10:33:08.185Z,28
2017-08-20T10:34:16.300Z,28
2017-08-20T10:35:24.352Z,16
2017-08-20T10:36:32.437Z,20
2017-08-20T10:37:40.540Z,32
2017-08-20T10:38:48.613Z,24
2017-08-20T10:39:56.704Z,32
2017-08-20T10:41:04.783Z,32
2017-08-20T10:42:12.870Z,32
2017-08-20T10:43:20.954Z,28
2017-08-20T10:44:29.047Z,28
2017-08-20T10:45:37.129Z,32
2017-08-20T10:46:45.215Z,32
2017-08-20T10:47:53.301Z,28
2017-08-20T10:49:01.389Z,28
2017-08-20T10:50:09.474Z,28
2017-08-20T10:51:17.562Z,28
2017-08-20T10:52:25.643Z,28
2017-08-20T10:53:33.734Z,28
2017-08-20T10:54:41.830Z,28
2017-08-20T10:55:49.914Z,32
2017-08-20T10:56:58.000Z,32
2017-08-20T10:58:06.092Z,32
2017-08-20T10:59:14.174Z,32
2017-08-20T11:00:22.280Z,28
2017-08-20T11:01:30.363Z,32
2017-08-20T11:02:38.434Z,28
2017-08-20T11:03:46.523Z,32
2017-08-20T11:04:54.607Z,32
2017-08-20T11:06:02.697Z,28
2017-08-20T11:07:10.781Z,32
2017-08-20T11:08:18.868Z,24
2017-08-20T11:09:26.955Z,28
2017-08-20T11:10:35.039Z,32
2017-08-20T11:11:43.146Z,28
2017-08-20T11:12:51.219Z,32
2017-08-20T11:13:59.301Z,32
2017-08-20T11:15:07.388Z,32
2017-08-20T11:16:15.481Z,16
2017-08-20T11:17:23.563Z,16
2017-08-20T11:18:31.658Z,32
2017-08-20T11:19:39.746Z,16
2017-08-20T11:20:47.831Z,16
2017-08-20T11:21:55.918Z,16
2017-08-20T11:23:04.006Z,12
2017-08-20T11:24:12.107Z,16
2017-08-20T11:25:20.190Z,16
2017-08-20T11:26:28.277Z,16
2017-08-20T11:27:36.365Z,12
2017-08-20T11:28:44.452Z,16
2017-08-20T11:29:52.539Z,28
2017-08-20T11:31:00.625Z,32
2017-08-20T11:32:08.711Z,32
2017-08-20T11:33:16.799Z,28
2017-08-20T11:34:24.883Z,28
2017-08-20T11:35:32.968Z,28
2017-08-20T11:36:41.059Z,24
2017-08-20T11:37:49.171Z,28
2017-08-20T11:38:57.237Z,28
2017-08-20T11:40:05.321Z,28
2017-08-20T11:41:13.407Z,16
2017-08-20T11:42:21.499Z,16
2017-08-20T11:43:29.621Z,16
2017-08-20T11:44:37.705Z,12
2017-08-20T11:45:45.800Z,8
2017-08-20T11:46:53.881Z,8
2017-08-20T11:48:01.966Z,8
2017-08-20T11:49:10.053Z,8
2017-08-20T11:50:18.138Z,4
2017-08-20T11:51:26.229Z,8
2017-08-20T11:52:34.322Z,4
2017-08-20T11:53:42.408Z,4
2017-08-20T11:54:50.488Z,4
2017-08-20T11:55:58.610Z,4
2017-08-20T11:57:06.662Z,8
2017-08-20T11:58:14.747Z,4
2017-08-20T11:59:22.837Z,4
2017-08-20T12:00:30.921Z,4
2017-08-20T12:01:39.012Z,4
2017-08-20T12:02:47.097Z,4
2017-08-20T12:03:55.186Z,4
2017-08-20T12:05:03.269Z,4
2017-08-20T12:06:11.355Z,8
2017-08-20T12:07:19.442Z,4
2017-08-20T12:08:27.538Z,4
2017-08-20T12:09:35.624Z,4
2017-08-20T12:10:43.712Z,4
2017-08-20T12:11:51.796Z,4
2017-08-20T12:12:59.883Z,8
2017-08-20T12:14:07.969Z,8
2017-08-20T12:15:16.056Z,8
2017-08-20T12:16:24.152Z,8
2017-08-20T12:17:32.238Z,8
2017-08-20T12:18:40.330Z,8
2017-08-20T12:19:48.425Z,12
2017-08-20T12:20:56.553Z,12
2017-08-20T12:22:04.640Z,12
2017-08-20T12:23:12.736Z,8
2017-08-20T12:24:20.812Z,12
2017-08-20T12:25:28.897Z,8
2017-08-20T12:26:36.983Z,12
2017-08-20T12:27:45.069Z,12
2017-08-20T12:28:53.160Z,12
2017-08-20T12:30:01.242Z,12
2017-08-20T12:31:09.329Z,12
2017-08-20T12:32:17.416Z,16
2017-08-20T12:33:25.501Z,16
2017-08-20T12:34:33.590Z,12
2017-08-20T12:35:41.676Z,16
2017-08-20T12:36:49.762Z,12
2017-08-20T12:37:57.848Z,12
2017-08-20T12:39:05.943Z,20
2017-08-20T12:40:14.023Z,20
2017-08-20T12:41:22.108Z,20
2017-08-20T12:42:30.201Z,20
2017-08-20T12:43:38.290Z,20
2017-08-20T12:44:46.370Z,20
2017-08-20T12:45:54.455Z,20
2017-08-20T12:47:02.542Z,20
2017-08-20T12:48:10.633Z,16
2017-08-20T12:49:18.719Z,20
2017-08-20T12:50:26.802Z,20
2017-08-20T12:51:34.886Z,16
2017-08-20T12:52:43.001Z,20
2017-08-20T12:53:51.061Z,20
2017-08-20T12:54:59.146Z,20
2017-08-20T12:56:07.237Z,20
2017-08-20T12:57:15.327Z,20
2017-08-20T12:58:23.407Z,16
2017-08-20T12:59:31.491Z,24
2017-08-20T13:00:39.583Z,20
2017-08-20T13:01:47.675Z,24
2017-08-20T13:02:55.755Z,24
2017-08-20T13:04:03.842Z,20
2017-08-20T13:05:11.926Z,16
2017-08-20T13:06:20.012Z,20
2017-08-20T13:07:28.100Z,16
2017-08-20T13:08:36.210Z,16
2017-08-20T13:09:44.276Z,16
2017-08-20T13:10:52.359Z,12
2017-08-20T13:12:00.446Z,12
2017-08-20T13:13:08.532Z,8
2017-08-20T13:14:16.620Z,8
2017-08-20T13:15:24.705Z,12
2017-08-20T13:16:32.809Z,8
2017-08-20T13:17:40.893Z,12
2017-08-20T13:18:48.987Z,12
2017-08-20T13:19:57.084Z,8
2017-08-20T13:21:05.171Z,8
2017-08-20T13:22:13.259Z,8
2017-08-20T13:23:21.347Z,8
2017-08-20T13:24:29.432Z,8
2017-08-20T13:25:37.522Z,8
2017-08-20T13:26:45.609Z,8
2017-08-20T13:27:53.687Z,4
2017-08-20T13:29:01.777Z,8
2017-08-20T13:30:09.867Z,8
2017-08-20T13:31:17.950Z,8
2017-08-20T13:32:26.035Z,12
2017-08-20T13:33:34.123Z,8
2017-08-20T13:34:42.210Z,12
2017-08-20T13:35:50.294Z,12
2017-08-20T13:36:58.379Z,12
2017-08-20T13:38:06.467Z,12
2017-08-20T13:39:14.552Z,8
2017-08-20T13:40:23.074Z,8
2017-08-20T13:41:31.156Z,8
2017-08-20T13:42:39.242Z,12
2017-08-20T13:43:47.329Z,12
2017-08-20T13:44:55.414Z,12
2017-08-20T13:46:03.501Z,12
2017-08-20T13:47:11.590Z,8
2017-08-20T13:48:19.676Z,8
2017-08-20T13:49:27.772Z,8
2017-08-20T13:50:35.848Z,8
2017-08-20T13:51:43.934Z,12
2017-08-20T13:52:52.022Z,12
2017-08-20T13:54:00.111Z,12
2017-08-20T13:55:08.193Z,8
2017-08-20T13:56:16.280Z,12
2017-08-20T13:57:24.366Z,8
2017-08-20T13:58:32.471Z,8
2017-08-20T13:59:40.538Z,12
2017-08-20T14:00:48.626Z,8
2017-08-20T14:01:56.711Z,8
2017-08-20T14:03:04.797Z,8
2017-08-20T14:04:12.886Z,12
2017-08-20T14:05:20.973Z,12
2017-08-20T14:06:29.060Z,12
2017-08-20T14:07:37.146Z,8
2017-08-20T14:08:45.231Z,8
2017-08-20T14:09:53.320Z,8
2017-08-20T14:11:01.413Z,8
2017-08-20T14:12:09.498Z,12
2017-08-20T14:13:17.584Z,12
2017-08-20T14:14:25.670Z,12
2017-08-20T14:15:33.755Z,16
2017-08-20T14:16:41.840Z,16
2017-08-20T14:17:49.926Z,20
2017-08-20T14:18:58.013Z,16
2017-08-20T14:20:06.102Z,16
2017-08-20T14:21:14.282Z,16
2017-08-20T14:22:22.275Z,16
2017-08-20T14:23:30.369Z,16
2017-08-20T14:24:38.449Z,16
2017-08-20T14:25:46.532Z,16
2017-08-20T14:26:54.620Z,12
2017-08-20T14:28:02.718Z,16
2017-08-20T14:29:10.792Z,16
2017-08-20T14:30:18.884Z,16
2017-08-20T14:31:26.968Z,8
2017-08-20T14:32:35.052Z,8
2017-08-20T14:33:43.140Z,8
2017-08-20T14:34:51.226Z,8
2017-08-20T14:35:59.329Z,12
2017-08-20T14:37:07.398Z,8
2017-08-20T14:38:15.484Z,8
2017-08-20T14:39:23.574Z,8
2017-08-20T14:40:31.656Z,8
2017-08-20T14:41:39.742Z,12
2017-08-20T14:42:47.828Z,12
2017-08-20T14:43:55.924Z,8
2017-08-20T14:45:04.003Z,8
2017-08-20T14:46:12.092Z,8
2017-08-20T14:47:20.184Z,8
2017-08-20T14:48:28.265Z,8
2017-08-20T14:49:36.353Z,8
2017-08-20T14:50:44.439Z,12
2017-08-20T14:51:52.525Z,8
2017-08-20T14:53:00.613Z,8
2017-08-20T14:54:08.700Z,8
2017-08-20T14:55:16.782Z,8
2017-08-20T14:56:24.870Z,8
2017-08-20T14:57:32.956Z,8
2017-08-20T14:58:41.099Z,8
2017-08-20T14:59:49.190Z,8
2017-08-20T15:00:57.274Z,4
2017-08-20T15:02:05.363Z,8
2017-08-20T15:03:13.444Z,8
2017-08-20T15:04:21.542Z,8
2017-08-20T15:05:29.624Z,8
2017-08-20T15:06:38.149Z,8
2017-08-20T15:07:45.949Z,8
2017-08-20T15:08:54.000Z,8
2017-08-20T15:10:02.008Z,8
2017-08-20T15:11:10.081Z,8
2017-08-20T15:12:18.574Z,4
2017-08-20T15:13:26.228Z,4
2017-08-20T15:14:34.313Z,8
2017-08-20T15:15:42.432Z,8
2017-08-20T15:16:50.624Z,8
2017-08-20T15:17:58.586Z,8
2017-08-20T15:19:06.671Z,8
2017-08-20T15:20:14.759Z,8
2017-08-20T15:21:22.847Z,4
2017-08-20T15:22:30.933Z,8
2017-08-20T15:23:39.024Z,8
2017-08-20T15:24:47.116Z,8
2017-08-20T15:25:55.203Z,4
2017-08-20T15:27:03.289Z,8
2017-08-20T15:28:11.391Z,8
2017-08-20T15:29:19.462Z,8
2017-08-20T15:30:27.573Z,8
2017-08-20T15:31:35.652Z,8
2017-08-20T15:32:43.739Z,8
2017-08-20T15:33:51.826Z,4
2017-08-20T15:34:59.920Z,8
2017-08-20T15:36:07.999Z,12
2017-08-20T15:37:16.086Z,4
2017-08-20T15:38:24.173Z,8
2017-08-20T15:39:32.260Z,8
2017-08-20T15:40:40.377Z,12
2017-08-20T15:41:48.462Z,8
2017-08-20T15:42:56.546Z,8
2017-08-20T15:44:04.632Z,8
2017-08-20T15:45:13.732Z,8
2017-08-20T15:46:21.813Z,8
2017-08-20T15:47:29.896Z,8
2017-08-20T15:48:37.980Z,8
2017-08-20T15:49:46.066Z,8
2017-08-20T15:50:54.150Z,8
2017-08-20T15:52:02.237Z,8
2017-08-20T15:53:10.323Z,8
2017-08-20T15:54:18.410Z,8
2017-08-20T15:55:26.498Z,8
2017-08-20T15:56:34.584Z,8
2017-08-20T15:57:42.667Z,8
2017-08-20T15:58:50.757Z,8
2017-08-20T15:59:58.841Z,8
2017-08-20T16:01:06.932Z,8
2017-08-20T16:02:15.015Z,8
2017-08-20T16:03:23.106Z,4
2017-08-20T16:04:31.193Z,8
2017-08-20T16:05:39.281Z,8
2017-08-20T16:06:47.368Z,8
2017-08-20T16:07:55.475Z,4
2017-08-20T16:09:03.543Z,4
2017-08-20T16:10:11.627Z,8
2017-08-20T16:11:19.714Z,4
2017-08-20T16:12:27.800Z,8
2017-08-20T16:13:35.885Z,8
2017-08-20T16:14:43.971Z,4
2017-08-20T16:15:52.056Z,4
2017-08-20T16:17:00.148Z,8
2017-08-20T16:18:08.240Z,8
2017-08-20T16:19:16.326Z,8
2017-08-20T16:20:24.414Z,8
2017-08-20T16:21:32.501Z,4
2017-08-20T16:22:40.587Z,8
2017-08-20T16:23:48.674Z,4
2017-08-20T16:24:56.761Z,4
2017-08-20T16:26:04.846Z,4
2017-08-20T16:27:12.931Z,4
2017-08-20T16:28:21.028Z,4
2017-08-20T16:29:29.113Z,4
2017-08-20T16:30:37.209Z,8
2017-08-20T16:31:45.291Z,8
2017-08-20T16:32:53.382Z,4
2017-08-20T16:34:01.470Z,8
2017-08-20T16:35:09.556Z,8
2017-08-20T16:36:17.643Z,8
2017-08-20T16:37:25.726Z,4
2017-08-20T16:38:33.815Z,8
2017-08-20T16:39:41.902Z,4
2017-08-20T16:40:49.986Z,4
2017-08-20T16:41:58.087Z,4
2017-08-20T16:43:06.194Z,4
2017-08-20T16:44:14.257Z,4
2017-08-20T16:45:22.350Z,4
2017-08-20T16:46:30.443Z,4
2017-08-20T16:47:38.514Z,8
2017-08-20T16:48:46.603Z,4
2017-08-20T16:49:54.689Z,4
2017-08-20T16:51:02.778Z,4
2017-08-20T16:52:10.860Z,4
2017-08-20T16:53:18.947Z,4
2017-08-20T16:54:27.035Z,4
2017-08-20T16:55:35.136Z,8
2017-08-20T16:56:43.207Z,4
2017-08-20T16:57:51.341Z,4
2017-08-20T16:58:59.378Z,4
2017-08-20T17:00:07.465Z,4
2017-08-20T17:01:15.555Z,4
2017-08-20T17:02:23.648Z,4
2017-08-20T17:03:31.734Z,4
2017-08-20T17:04:39.821Z,4
2017-08-20T17:05:47.905Z,4
2017-08-20T17:06:55.992Z,4
2017-08-20T17:08:04.080Z,4
2017-08-20T17:09:12.165Z,0
2017-08-20T17:10:20.251Z,0
2017-08-20T17:11:28.359Z,0
2017-08-20T17:12:36.451Z,0
2017-08-20T17:13:44.669Z,0
2017-08-20T17:14:52.762Z,0
2017-08-20T17:16:00.844Z,0
2017-08-20T17:17:08.928Z,0
2017-08-20T17:18:17.016Z,0
2017-08-20T17:19:25.105Z,0
2017-08-20T17:20:33.204Z,0
2017-08-20T17:21:41.274Z,4
2017-08-20T17:22:49.361Z,4
2017-08-20T17:23:57.475Z,4
2017-08-20T17:25:05.548Z,4
2017-08-20T17:26:13.623Z,4
2017-08-20T17:27:21.710Z,4
2017-08-20T17:28:29.797Z,4
2017-08-20T17:29:37.882Z,4
2017-08-20T17:30:46.050Z,0
2017-08-20T17:31:54.188Z,4
2017-08-20T17:33:02.219Z,4
2017-08-20T17:34:10.328Z,4
2017-08-20T17:35:18.400Z,4
2017-08-20T17:36:26.490Z,4
2017-08-20T17:37:34.571Z,0
2017-08-20T17:38:42.664Z,0
2017-08-20T17:39:50.744Z,4
2017-08-20T17:40:58.829Z,4
2017-08-20T17:42:06.924Z,4
2017-08-20T17:43:15.004Z,0
2017-08-20T17:44:23.094Z,0
2017-08-20T17:45:31.182Z,0
2017-08-20T17:46:39.286Z,0
2017-08-20T17:47:47.345Z,0
2017-08-20T17:48:55.440Z,4
2017-08-20T17:50:03.527Z,4
2017-08-20T17:51:11.613Z,4
2017-08-20T17:52:19.698Z,4
2017-08-20T17:53:27.785Z,4
2017-08-20T17:54:35.869Z,4
2017-08-20T17:55:43.956Z,4
2017-08-20T17:56:52.044Z,0
2017-08-20T17:58:00.130Z,0
2017-08-20T17:59:08.220Z,0
2017-08-20T18:00:16.300Z,0
2017-08-20T18:01:24.392Z,0
2017-08-20T18:02:32.479Z,0
2017-08-20T18:03:40.560Z,0
2017-08-20T18:04:48.649Z,0
2017-08-20T18:05:56.730Z,0
2017-08-20T18:07:04.822Z,0
2017-08-20T18:08:12.905Z,0
2017-08-20T18:09:20.992Z,0
2017-08-20T18:10:29.078Z,4
2017-08-20T18:11:37.162Z,4
2017-08-20T18:12:45.254Z,0
2017-08-20T18:13:53.358Z,0
2017-08-20T18:15:01.431Z,0
2017-08-20T18:16:09.516Z,0
2017-08-20T18:17:17.624Z,0
2017-08-20T18:18:25.707Z,4
2017-08-20T18:19:33.794Z,4
2017-08-20T18:20:41.884Z,0
2017-08-20T18:21:49.968Z,0
2017-08-20T18:22:58.057Z,0
2017-08-20T18:24:06.144Z,0
2017-08-20T18:25:14.228Z,0
2017-08-20T18:26:22.313Z,0
2017-08-20T18:27:30.398Z,0
2017-08-20T18:28:38.489Z,0
2017-08-20T18:29:46.569Z,0
2017-08-20T18:30:54.656Z,0
2017-08-20T18:32:02.750Z,0
2017-08-20T18:33:10.835Z,0
2017-08-20T18:34:18.922Z,0
2017-08-20T18:35:27.006Z,0
2017-08-20T18:36:35.099Z,0
2017-08-20T18:37:43.187Z,0
2017-08-20T18:38:51.272Z,0
2017-08-20T18:39:59.438Z,0
2017-08-20T18:41:07.444Z,0
2017-08-20T18:42:15.532Z,0
2017-08-20T18:43:23.632Z,0
2017-08-20T18:44:31.700Z,0
2017-08-20T18:45:39.793Z,0
2017-08-20T18:46:47.870Z,0
2017-08-20T18:47:55.958Z,0
2017-08-20T18:49:04.042Z,0
2017-08-20T18:50:12.158Z,0
2017-08-20T18:51:20.244Z,0
2017-08-20T18:52:28.341Z,0
2017-08-20T18:53:36.477Z,0
2017-08-20T18:54:44.527Z,0
2017-08-20T18:55:52.595Z,0
2017-08-20T18:57:00.682Z,0
2017-08-20T18:58:08.768Z,0
2017-08-20T18:59:16.851Z,0
2017-08-20T19:00:24.937Z,0
2017-08-20T19:01:33.054Z,0
2017-08-20T19:02:41.123Z,0
2017-08-20T19:03:49.206Z,0
2017-08-20T19:04:57.290Z,0
2017-08-20T19:06:05.408Z,0
2017-08-20T19:07:13.462Z,0
2017-08-20T19:08:21.547Z,0
2017-08-20T19:09:29.634Z,0
2017-08-20T19:10:37.722Z,0
2017-08-20T19:11:45.807Z,0
2017-08-20T19:12:53.892Z,0
2017-08-20T19:14:01.979Z,0
2017-08-20T19:15:10.066Z,0
2017-08-20T19:16:18.146Z,0
2017-08-20T19:17:26.251Z,0
2017-08-20T19:18:34.324Z,0
2017-08-20T19:19:42.403Z,0
2017-08-20T19:20:50.491Z,0
2017-08-20T19:21:58.579Z,0
2017-08-20T19:23:06.663Z,0
2017-08-20T19:24:14.748Z,0
2017-08-20T19:25:22.833Z,0
2017-08-20T19:26:30.924Z,0
2017-08-20T19:27:39.007Z,0
2017-08-20T19:28:47.091Z,0
2017-08-20T19:29:55.179Z,0
2017-08-20T19:31:03.262Z,0
2017-08-20T19:32:11.354Z,0
2017-08-20T19:33:19.437Z,0
2017-08-20T19:34:27.528Z,0
2017-08-20T19:35:35.613Z,0
2017-08-20T19:36:43.700Z,0
2017-08-20T19:37:51.784Z,0
2017-08-20T19:38:59.874Z,0
2017-08-20T19:40:07.960Z,0
2017-08-20T19:41:16.047Z,0
2017-08-20T19:42:24.129Z,0
2017-08-20T19:43:32.237Z,0
2017-08-20T19:44:40.305Z,0
2017-08-20T19:45:48.388Z,0
2017-08-20T19:46:56.475Z,0
2017-08-20T19:48:04.570Z,0
2017-08-20T19:49:12.663Z,0
2017-08-20T19:50:20.751Z,0
2017-08-20T19:51:28.837Z,0
2017-08-20T19:52:36.920Z,0
2017-08-20T19:53:45.018Z,0
2017-08-20T19:54:53.102Z,0
2017-08-20T19:56:01.186Z,0
2017-08-20T19:57:09.274Z,0
2017-08-20T19:58:17.369Z,0
2017-08-20T19:59:25.455Z,0
2017-08-20T20:00:33.551Z,0
2017-08-20T20:01:41.626Z,0
2017-08-20T20:02:49.714Z,0
2017-08-20T20:03:57.797Z,0
2017-08-20T20:05:05.886Z,0
2017-08-20T20:06:14.000Z,0
2017-08-20T20:07:22.051Z,0
2017-08-20T20:08:30.146Z,0
2017-08-20T20:09:38.239Z,0
2017-08-20T20:10:46.332Z,0
2017-08-20T20:11:54.400Z,0
2017-08-20T20:13:02.483Z,0
2017-08-20T20:14:10.566Z,0
2017-08-20T20:15:18.654Z,0
2017-08-20T20:16:26.741Z,0
2017-08-20T20:17:34.824Z,0
2017-08-20T20:18:42.918Z,0
2017-08-20T20:19:50.997Z,0
2017-08-20T20:20:59.086Z,0
2017-08-20T20:22:07.169Z,0
2017-08-20T20:23:15.255Z,0
2017-08-20T20:24:23.338Z,0
2017-08-20T20:25:31.424Z,0
2017-08-20T20:26:39.510Z,0
2017-08-20T20:27:47.595Z,0
2017-08-20T20:28:55.682Z,0
2017-08-20T20:30:03.763Z,0
2017-08-20T20:31:11.853Z,0
2017-08-20T20:32:19.937Z,0
2017-08-20T20:33:28.022Z,0
2017-08-20T20:34:36.110Z,0
2017-08-20T20:35:44.198Z,0
2017-08-20T20:36:52.280Z,0
2017-08-20T20:38:00.365Z,0
2017-08-20T20:39:08.455Z,0
2017-08-20T20:40:16.543Z,0
2017-08-20T20:41:24.625Z,0
2017-08-20T20:42:32.710Z,0
2017-08-20T20:43:40.816Z,0
2017-08-20T20:44:48.880Z,0
2017-08-20T20:45:56.968Z,0
2017-08-20T20:47:05.053Z,0
2017-08-20T20:48:13.142Z,0
2017-08-20T20:49:21.226Z,0
2017-08-20T20:50:29.310Z,0
2017-08-20T20:51:37.396Z,0
2017-08-20T20:52:45.485Z,0
2017-08-20T20:53:53.568Z,0
2017-08-20T20:55:01.654Z,0
2017-08-20T20:56:09.739Z,0
2017-08-20T20:57:17.834Z,0
2017-08-20T20:58:25.921Z,0
2017-08-20T20:59:34.007Z,0
2017-08-20T21:00:42.148Z,0
2017-08-20T21:01:50.182Z,0
2017-08-20T21:02:58.263Z,0
2017-08-20T21:04:06.354Z,0
2017-08-20T21:05:14.436Z,0
2017-08-20T21:06:22.522Z,0
2017-08-20T21:07:30.611Z,0
2017-08-20T21:08:38.693Z,0
2017-08-20T21:09:46.779Z,0
2017-08-20T21:10:54.861Z,0
2017-08-20T21:12:02.983Z,0
2017-08-20T21:13:11.034Z,0
2017-08-20T21:14:19.140Z,0
2017-08-20T21:15:27.216Z,0
2017-08-20T21:16:35.314Z,0
2017-08-20T21:17:43.381Z,0
2017-08-20T21:18:51.466Z,0
2017-08-20T21:19:59.554Z,0
2017-08-20T21:21:07.641Z,0
2017-08-20T21:22:15.730Z,0
2017-08-20T21:23:23.809Z,0
2017-08-20T21:24:31.896Z,0
2017-08-20T21:25:39.984Z,0
2017-08-20T21:26:48.068Z,0
2017-08-20T21:27:56.764Z,0
2017-08-20T21:29:04.307Z,0